OIBL  Bandar Lengeh  Airport

Bandar Lengeh, Iran

Add Bookmark
ICAO OIBL
IATA BDH
Type Airport
Status Operational
Latitude
26° 31' 55" N
26.532000
Longitude
54° 49' 29" E
54.824799
Local (GMT +3.5 ) UTC
Dec 7, 2016 05:51 pm Dec 7, 2016 14:21
Sunrise-Sunset Local UTC
Begin Civil Twilight 06:00 am 02:30
Sunrise 06:25 am 02:55
Sunset 04:59 pm 13:29
End Civil Twilight 05:24 pm 13:54
VFR
VFR
MVFR
MVFR
IFR
IFR
LIFR
LIFR
Unknown
No Data

Current Weather

METAR Observed IFR
OIBL 071400Z 24008KT 3000 BR NSC 25/24 Q1015 Wed, Dec 7, 2016 @ 14:00 UTC
(21 Minutes ago)
Instrument Flight Rules
Wind Visibility Conditions
240° at 8 knots (15 kph) 2,993 m
  • Mist
Temperatures Readings Precipitation
Current Temp
25°C
77°F
Dewpoint
24°C
75°F
Humidity 94%
Altimeter 29.97" Hg
Sea Level Pressure 1,015 mb
Field Elevation
14 m
46 ft
None Recorded

Additional weather within a 92.6km radius of OIBL

Map ICAO Location
OIBS 74.8km S/SW (202°)
OIBA 75.9km S/SE (164°)
VFR
VFR
MVFR
MVFR
IFR
IFR
LIFR
LIFR
Unknown
No Data
-
-

CheckWX.com is intended as a tool to help pilots better visualize weather data. It is not intended as a substitute for an official weather briefing obtained from a Flight Service Station. CheckWX.com does not meet the FAA requirements for an official pre-flight weather briefing. Therefore, it's important that pilots still call and obtain an official FSS pre-flight weather briefing.

© 2007-2016 CheckWX.com
14:21:04 UTC